createdAt,value
2023-01-21T00:00:08.594Z,-4.31
2023-01-21T00:02:35.093Z,-4.34
2023-01-21T00:05:01.797Z,-4.31
2023-01-21T00:07:28.252Z,-4.33
2023-01-21T00:09:54.744Z,-4.32
2023-01-21T00:12:21.241Z,-4.33
2023-01-21T00:14:47.901Z,-4.35
2023-01-21T00:17:14.315Z,-4.29
2023-01-21T00:19:40.834Z,-4.40
2023-01-21T00:22:07.264Z,-4.38
2023-01-21T00:24:33.746Z,-4.33
2023-01-21T00:27:00.231Z,-4.29
2023-01-21T00:29:26.774Z,-4.35
2023-01-21T00:31:53.468Z,-4.34
2023-01-21T00:34:20.019Z,-4.39
2023-01-21T00:36:46.506Z,-4.35
2023-01-21T00:39:13.012Z,-4.32
2023-01-21T00:41:39.475Z,-4.40
2023-01-21T00:44:06.026Z,-4.46
2023-01-21T00:46:32.834Z,-4.45
2023-01-21T00:49:00.417Z,-4.53
2023-01-21T00:51:27.617Z,-4.60
2023-01-21T00:53:54.297Z,-4.52
2023-01-21T00:56:20.838Z,-4.54
2023-01-21T00:58:47.675Z,-4.52
2023-01-21T01:01:17.466Z,-4.65
2023-01-21T01:03:44.576Z,-4.71
2023-01-21T01:06:15.040Z,-4.65
2023-01-21T01:08:42.391Z,-4.64
2023-01-21T01:11:09.680Z,-4.65
2023-01-21T01:13:37.000Z,-4.70
2023-01-21T01:16:04.079Z,-4.70
2023-01-21T01:18:33.614Z,-4.70
2023-01-21T01:21:00.991Z,-4.64
2023-01-21T01:23:27.824Z,-4.56
2023-01-21T01:26:02.399Z,-4.48
2023-01-21T01:28:30.146Z,-4.48
2023-01-21T01:30:57.287Z,-4.47
2023-01-21T01:33:25.023Z,-4.46
2023-01-21T01:35:51.586Z,-4.37
2023-01-21T01:38:20.494Z,-4.39
2023-01-21T01:40:48.667Z,-4.53
2023-01-21T01:43:27.509Z,-4.58
2023-01-21T01:45:54.586Z,-4.52
2023-01-21T01:48:31.503Z,-4.51
2023-01-21T01:51:01.316Z,-4.49
2023-01-21T01:53:29.310Z,-4.55
2023-01-21T01:55:55.784Z,-4.54
2023-01-21T01:58:23.065Z,-4.53
2023-01-21T02:00:49.699Z,-4.46
2023-01-21T02:03:36.377Z,-4.40
2023-01-21T02:07:14.651Z,-4.41
2023-01-21T02:09:41.142Z,-4.38
2023-01-21T02:12:07.961Z,-4.41
2023-01-21T02:14:42.760Z,-4.33
2023-01-21T02:17:41.661Z,-4.32
2023-01-21T02:20:23.080Z,-4.34
2023-01-21T02:22:49.580Z,-4.26
2023-01-21T02:25:47.017Z,-4.21
2023-01-21T02:28:22.440Z,-4.28
2023-01-21T02:31:16.242Z,-4.27
2023-01-21T02:33:42.735Z,-4.12
2023-01-21T02:36:22.740Z,-4.06
2023-01-21T02:39:07.462Z,-4.16
2023-01-21T02:41:36.593Z,-4.18
2023-01-21T02:44:18.517Z,-4.13
2023-01-21T02:47:09.439Z,-4.16
2023-01-21T02:50:30.313Z,-4.14
2023-01-21T02:52:58.509Z,-4.11
2023-01-21T02:55:30.132Z,-4.09
2023-01-21T02:58:01.608Z,-4.09
2023-01-21T03:00:31.449Z,-4.04
2023-01-21T03:03:22.221Z,-4.10
2023-01-21T03:06:16.716Z,-4.12
2023-01-21T03:08:48.216Z,-4.10
2023-01-21T03:11:15.792Z,-3.95
2023-01-21T03:14:12.057Z,-4.01
2023-01-21T03:16:57.921Z,-4.00
2023-01-21T03:19:41.642Z,-4.03
2023-01-21T03:22:19.572Z,-3.95
2023-01-21T03:24:50.863Z,-4.00
2023-01-21T03:27:21.179Z,-3.96
2023-01-21T03:29:50.328Z,-3.97
2023-01-21T03:32:20.940Z,-3.88
2023-01-21T03:34:51.761Z,-3.85
2023-01-21T03:37:27.890Z,-3.95
2023-01-21T03:40:08.088Z,-3.84
2023-01-21T03:42:34.655Z,-3.86
2023-01-21T03:45:02.012Z,-3.87
2023-01-21T03:47:39.102Z,-3.86
2023-01-21T03:50:10.813Z,-3.92
2023-01-21T03:52:43.248Z,-3.82
2023-01-21T03:55:11.103Z,-3.87
2023-01-21T03:57:37.960Z,-3.87
2023-01-21T04:00:05.899Z,-3.75
2023-01-21T04:02:32.446Z,-3.82
2023-01-21T04:04:59.074Z,-3.83
2023-01-21T04:07:25.863Z,-3.81
2023-01-21T04:09:52.339Z,-3.86
2023-01-21T04:12:18.848Z,-3.81
2023-01-21T04:14:45.487Z,-3.83
2023-01-21T04:17:12.104Z,-3.88
2023-01-21T04:19:38.584Z,-3.89
2023-01-21T04:22:05.119Z,-3.90
2023-01-21T04:24:34.457Z,-3.87
2023-01-21T04:27:01.049Z,-3.88
2023-01-21T04:29:27.785Z,-3.84
2023-01-21T04:31:54.410Z,-3.92
2023-01-21T04:34:21.001Z,-3.87
2023-01-21T04:36:47.753Z,-3.86
2023-01-21T04:39:14.178Z,-3.87
2023-01-21T04:41:43.667Z,-3.84
2023-01-21T04:44:10.197Z,-3.86
2023-01-21T04:46:36.682Z,-3.85
2023-01-21T04:49:03.279Z,-3.86
2023-01-21T04:51:30.023Z,-3.86
2023-01-21T04:53:56.468Z,-3.84
2023-01-21T04:56:22.928Z,-3.80
2023-01-21T04:58:49.545Z,-3.87
2023-01-21T05:01:16.202Z,-3.82
2023-01-21T05:03:42.742Z,-3.84
2023-01-21T05:06:09.369Z,-3.83
2023-01-21T05:08:35.854Z,-3.87
2023-01-21T05:11:02.417Z,-3.83
2023-01-21T05:13:28.915Z,-3.91
2023-01-21T05:15:55.775Z,-3.86
2023-01-21T05:18:22.269Z,-3.88
2023-01-21T05:20:48.738Z,-3.92
2023-01-21T05:23:15.189Z,-3.89
2023-01-21T05:25:41.641Z,-3.93
2023-01-21T05:28:08.334Z,-3.91
2023-01-21T05:30:35.051Z,-3.89
2023-01-21T05:33:02.691Z,-3.87
2023-01-21T05:35:29.231Z,-3.89
2023-01-21T05:37:55.772Z,-3.87
2023-01-21T05:40:22.316Z,-3.91
2023-01-21T05:42:48.781Z,-3.83
2023-01-21T05:45:15.321Z,-3.82
2023-01-21T05:47:41.957Z,-3.81
2023-01-21T05:50:09.904Z,-3.77
2023-01-21T05:52:36.945Z,-3.74
2023-01-21T05:55:04.262Z,-3.75
2023-01-21T05:57:31.450Z,-3.77
2023-01-21T05:59:58.389Z,-3.73
2023-01-21T06:02:25.306Z,-3.74
2023-01-21T06:04:51.842Z,-3.80
2023-01-21T06:07:18.272Z,-3.78
2023-01-21T06:09:44.788Z,-3.68
2023-01-21T06:12:11.217Z,-3.68
2023-01-21T06:14:37.650Z,-3.59
2023-01-21T06:17:04.091Z,-3.51
2023-01-21T06:19:30.611Z,-3.56
2023-01-21T06:21:57.100Z,-3.54
2023-01-21T06:24:23.555Z,-3.61
2023-01-21T06:26:50.149Z,-3.58
2023-01-21T06:29:16.641Z,-3.66
2023-01-21T06:31:43.240Z,-3.61
2023-01-21T06:34:12.677Z,-3.68
2023-01-21T06:36:42.450Z,-3.63
2023-01-21T06:39:12.095Z,-3.70
2023-01-21T06:41:38.686Z,-3.71
2023-01-21T06:44:05.738Z,-3.72
2023-01-21T06:46:32.422Z,-3.70
2023-01-21T06:48:58.949Z,-3.72
2023-01-21T06:51:25.630Z,-3.74
2023-01-21T06:53:52.123Z,-3.73
2023-01-21T06:56:18.574Z,-3.75
2023-01-21T06:58:45.046Z,-3.79
2023-01-21T07:01:11.688Z,-3.72
2023-01-21T07:03:38.186Z,-3.74
2023-01-21T07:06:04.984Z,-3.75
2023-01-21T07:08:31.750Z,-3.80
2023-01-21T07:10:58.343Z,-3.71
2023-01-21T07:13:24.889Z,-3.72
2023-01-21T07:15:51.434Z,-3.77
2023-01-21T07:18:17.927Z,-3.75
2023-01-21T07:20:44.553Z,-3.82
2023-01-21T07:23:11.048Z,-3.77
2023-01-21T07:25:38.277Z,-3.82
2023-01-21T07:28:04.866Z,-3.78
2023-01-21T07:30:31.484Z,-3.90
2023-01-21T07:32:57.944Z,-3.89
2023-01-21T07:35:24.371Z,-3.78
2023-01-21T07:37:50.838Z,-3.73
2023-01-21T07:40:17.544Z,-3.70
2023-01-21T07:42:44.027Z,-3.69
2023-01-21T07:45:10.657Z,-3.72
2023-01-21T07:47:37.186Z,-3.66
2023-01-21T07:50:08.458Z,-3.58
2023-01-21T07:52:34.996Z,-3.61
2023-01-21T07:55:01.775Z,-3.61
2023-01-21T07:57:28.399Z,-3.64
2023-01-21T07:59:55.173Z,-3.62
2023-01-21T08:02:21.821Z,-3.58
2023-01-21T08:04:48.404Z,-3.56
2023-01-21T08:07:15.036Z,-3.51
2023-01-21T08:09:41.487Z,-3.48
2023-01-21T08:12:08.805Z,-3.52
2023-01-21T08:14:35.371Z,-3.52
2023-01-21T08:17:02.567Z,-3.42
2023-01-21T08:19:29.077Z,-3.43
2023-01-21T08:21:55.666Z,-3.36
2023-01-21T08:24:22.317Z,-3.38
2023-01-21T08:26:49.124Z,-3.51
2023-01-21T08:29:15.652Z,-3.46
2023-01-21T08:31:42.220Z,-3.35
2023-01-21T08:34:08.749Z,-3.25
2023-01-21T08:36:35.352Z,-3.35
2023-01-21T08:39:02.099Z,-3.36
2023-01-21T08:41:28.739Z,-3.28
2023-01-21T08:43:55.208Z,-3.21
2023-01-21T08:46:21.671Z,-3.23
2023-01-21T08:48:48.174Z,-3.13
2023-01-21T08:51:14.855Z,-3.11
2023-01-21T08:53:41.466Z,-3.10
2023-01-21T08:56:08.057Z,-3.15
2023-01-21T08:58:34.630Z,-3.06
2023-01-21T09:01:12.122Z,-3.00
2023-01-21T09:03:38.903Z,-2.98
2023-01-21T09:06:06.696Z,-2.99
2023-01-21T09:08:33.193Z,-3.04
2023-01-21T09:11:00.866Z,-2.93
2023-01-21T09:13:35.636Z,-3.03
2023-01-21T09:16:02.084Z,-2.92
2023-01-21T09:18:28.785Z,-2.83
2023-01-21T09:21:00.854Z,-2.94
2023-01-21T09:23:28.095Z,-2.81
2023-01-21T09:26:04.143Z,-2.82
2023-01-21T09:28:33.059Z,-2.89
2023-01-21T09:31:01.999Z,-2.75
2023-01-21T09:33:30.150Z,-2.79
2023-01-21T09:35:58.565Z,-2.79
2023-01-21T09:38:26.290Z,-2.64
2023-01-21T09:40:53.578Z,-2.71
2023-01-21T09:43:34.108Z,-2.60
2023-01-21T09:46:05.189Z,-2.59
2023-01-21T09:48:38.155Z,-2.48
2023-01-21T09:51:13.224Z,-2.57
2023-01-21T09:53:49.180Z,-2.26
2023-01-21T09:56:30.711Z,-2.52
2023-01-21T09:59:27.056Z,-2.58
2023-01-21T10:02:00.145Z,-2.48
2023-01-21T10:04:32.584Z,-2.40
2023-01-21T10:07:27.700Z,-2.48
2023-01-21T10:10:09.481Z,-2.48
2023-01-21T10:12:58.868Z,-2.52
2023-01-21T10:15:46.668Z,-2.48
2023-01-21T10:18:17.798Z,-2.51
2023-01-21T10:21:04.768Z,-2.47
2023-01-21T10:23:43.082Z,-2.34
2023-01-21T10:26:13.168Z,-2.44
2023-01-21T10:28:44.633Z,-2.39
2023-01-21T10:31:24.869Z,-2.38
2023-01-21T10:33:51.694Z,-2.37
2023-01-21T10:36:45.414Z,-2.39
2023-01-21T10:39:36.510Z,-2.35
2023-01-21T10:42:16.945Z,-2.20
2023-01-21T10:45:02.295Z,-2.27
2023-01-21T10:47:36.035Z,-2.17
2023-01-21T10:50:33.419Z,-2.12
2023-01-21T10:53:21.363Z,-2.08
2023-01-21T10:56:05.853Z,-2.01
2023-01-21T10:58:42.615Z,-1.80
2023-01-21T11:01:18.701Z,-1.87
2023-01-21T11:03:51.485Z,-1.73
2023-01-21T11:06:20.196Z,-1.72
2023-01-21T11:08:51.334Z,-1.74
2023-01-21T11:11:26.904Z,-1.59
2023-01-21T11:13:54.552Z,-1.67
2023-01-21T11:16:48.727Z,-1.65
2023-01-21T11:19:27.817Z,-1.67
2023-01-21T11:22:17.754Z,-1.57
2023-01-21T11:24:47.574Z,-1.50
2023-01-21T11:27:31.912Z,-1.39
2023-01-21T11:29:58.498Z,-1.28
2023-01-21T11:32:27.636Z,-1.28
2023-01-21T11:35:10.292Z,-1.45
2023-01-21T11:37:37.883Z,-1.40
2023-01-21T11:40:20.785Z,-1.12
2023-01-21T11:42:49.855Z,-1.33
2023-01-21T11:45:28.036Z,-1.21
2023-01-21T11:47:55.229Z,-1.19
2023-01-21T11:50:39.988Z,-1.24
2023-01-21T11:53:06.385Z,-1.19
2023-01-21T11:55:38.552Z,-1.38
2023-01-21T11:58:06.581Z,-1.28
2023-01-21T12:00:36.262Z,-1.29
2023-01-21T12:03:05.667Z,-1.20
2023-01-21T12:05:40.852Z,-1.29
2023-01-21T12:08:07.795Z,-1.29
2023-01-21T12:10:43.637Z,-1.11
2023-01-21T12:13:17.869Z,-1.26
2023-01-21T12:16:03.671Z,-1.27
2023-01-21T12:18:48.745Z,-1.27
2023-01-21T12:21:33.712Z,-1.12
2023-01-21T12:24:18.507Z,-1.26
2023-01-21T12:26:49.973Z,-1.15
2023-01-21T12:29:31.952Z,-1.22
2023-01-21T12:32:02.142Z,-1.18
2023-01-21T12:34:28.908Z,-1.08
2023-01-21T12:37:04.923Z,-1.11
2023-01-21T12:39:36.284Z,-1.02
2023-01-21T12:42:14.206Z,-0.95
2023-01-21T12:44:59.132Z,-1.01
2023-01-21T12:47:38.711Z,-1.12
2023-01-21T12:50:22.277Z,-0.92
2023-01-21T12:53:37.060Z,-1.00
2023-01-21T12:56:12.412Z,-1.14
2023-01-21T12:58:43.759Z,-0.98
2023-01-21T13:01:15.890Z,-1.06
2023-01-21T13:04:00.801Z,-1.03
2023-01-21T13:06:54.672Z,-1.02
2023-01-21T13:09:46.444Z,-1.03
2023-01-21T13:12:19.031Z,-1.00
2023-01-21T13:14:51.689Z,-1.00
2023-01-21T13:17:24.500Z,-1.09
2023-01-21T13:19:51.068Z,-0.95
2023-01-21T13:22:28.745Z,-1.00
2023-01-21T13:25:23.106Z,-0.96
2023-01-21T13:28:05.240Z,-0.93
2023-01-21T13:30:45.070Z,-1.00
2023-01-21T13:33:28.238Z,-0.97
2023-01-21T13:36:31.773Z,-0.99
2023-01-21T13:39:19.863Z,-1.00
2023-01-21T13:42:17.323Z,-1.01
2023-01-21T13:44:59.989Z,-0.97
2023-01-21T13:47:54.221Z,-0.85
2023-01-21T13:50:49.665Z,-0.93
2023-01-21T13:53:50.183Z,-0.93
2023-01-21T13:56:32.417Z,-1.02
2023-01-21T13:59:07.571Z,-0.86
2023-01-21T14:02:01.785Z,-0.93
2023-01-21T14:04:50.850Z,-0.99
2023-01-21T14:07:43.416Z,-0.88
2023-01-21T14:10:23.265Z,-0.99
2023-01-21T14:13:15.989Z,-1.03
2023-01-21T14:15:49.723Z,-1.00
2023-01-21T14:18:23.591Z,-1.00
2023-01-21T14:21:27.350Z,-1.09
2023-01-21T14:24:17.214Z,-1.04
2023-01-21T14:27:15.252Z,-1.02
2023-01-21T14:29:47.747Z,-1.09
2023-01-21T14:32:37.656Z,-1.11
2023-01-21T14:35:15.938Z,-1.00
2023-01-21T14:38:14.194Z,-1.00
2023-01-21T14:41:05.983Z,-1.10
2023-01-21T14:43:32.437Z,-0.98
2023-01-21T14:46:00.933Z,-1.07
2023-01-21T14:48:41.912Z,-1.08
2023-01-21T14:51:08.449Z,-0.97
2023-01-21T14:53:49.285Z,-0.97
2023-01-21T14:56:29.044Z,-1.02
2023-01-21T14:58:57.557Z,-0.96
2023-01-21T15:01:29.822Z,-0.99
2023-01-21T15:03:58.379Z,-1.04
2023-01-21T15:06:25.947Z,-0.98
2023-01-21T15:08:56.594Z,-1.02
2023-01-21T15:11:37.965Z,-0.96
2023-01-21T15:14:12.870Z,-1.03
2023-01-21T15:16:42.831Z,-1.07
2023-01-21T15:19:09.673Z,-1.17
2023-01-21T15:21:45.248Z,-1.19
2023-01-21T15:24:33.773Z,-1.19
2023-01-21T15:27:15.865Z,-1.38
2023-01-21T15:30:00.677Z,-1.48
2023-01-21T15:32:38.105Z,-1.41
2023-01-21T15:35:35.234Z,-1.51
2023-01-21T15:38:01.618Z,-1.56
2023-01-21T15:40:40.878Z,-1.62
2023-01-21T15:43:31.454Z,-1.72
2023-01-21T15:46:03.862Z,-1.87
2023-01-21T15:48:57.126Z,-1.90
2023-01-21T15:51:51.181Z,-2.07
2023-01-21T15:54:30.438Z,-2.01
2023-01-21T15:57:15.512Z,-2.14
2023-01-21T16:00:00.728Z,-2.26
2023-01-21T16:02:43.235Z,-2.21
2023-01-21T16:05:12.590Z,-2.29
2023-01-21T16:08:09.795Z,-2.32
2023-01-21T16:11:14.557Z,-2.39
2023-01-21T16:14:19.032Z,-2.38
2023-01-21T16:17:17.781Z,-2.48
2023-01-21T16:19:48.475Z,-2.51
2023-01-21T16:22:21.628Z,-2.57
2023-01-21T16:24:52.554Z,-2.53
2023-01-21T16:27:28.143Z,-2.55
2023-01-21T16:29:59.767Z,-2.54
2023-01-21T16:32:27.052Z,-2.51
2023-01-21T16:34:54.542Z,-2.60
2023-01-21T16:37:24.378Z,-2.57
2023-01-21T16:39:55.404Z,-2.58
2023-01-21T16:42:29.053Z,-2.52
2023-01-21T16:44:55.598Z,-2.53
2023-01-21T16:47:33.612Z,-2.58
2023-01-21T16:50:01.426Z,-2.61
2023-01-21T16:52:28.394Z,-2.59
2023-01-21T16:54:56.008Z,-2.60
2023-01-21T16:57:31.682Z,-2.61
2023-01-21T17:00:02.097Z,-2.55
2023-01-21T17:02:33.333Z,-2.66
2023-01-21T17:05:05.073Z,-2.68
2023-01-21T17:07:42.866Z,-2.70
2023-01-21T17:10:15.669Z,-2.65
2023-01-21T17:12:48.061Z,-2.70
2023-01-21T17:15:29.644Z,-2.71
2023-01-21T17:17:57.062Z,-2.68
2023-01-21T17:21:07.522Z,-2.75
2023-01-21T17:23:37.855Z,-2.72
2023-01-21T17:26:34.341Z,-2.73
2023-01-21T17:29:12.101Z,-2.69
2023-01-21T17:31:43.044Z,-2.72
2023-01-21T17:34:15.524Z,-2.76
2023-01-21T17:36:44.440Z,-2.79
2023-01-21T17:39:11.648Z,-2.73
2023-01-21T17:41:41.207Z,-2.72
2023-01-21T17:44:23.487Z,-2.70
2023-01-21T17:46:53.509Z,-2.66
2023-01-21T17:49:23.391Z,-2.74
2023-01-21T17:51:52.244Z,-2.79
2023-01-21T17:54:26.976Z,-2.83
2023-01-21T17:57:02.314Z,-2.78
2023-01-21T17:59:35.213Z,-2.82
2023-01-21T18:02:02.929Z,-2.79
2023-01-21T18:04:29.873Z,-2.82
2023-01-21T18:06:57.295Z,-2.83
2023-01-21T18:09:25.423Z,-2.76
2023-01-21T18:11:54.046Z,-2.73
2023-01-21T18:14:23.889Z,-2.74
2023-01-21T18:16:52.837Z,-2.79
2023-01-21T18:19:36.140Z,-2.73
2023-01-21T18:22:04.766Z,-2.74
2023-01-21T18:24:31.879Z,-2.74
2023-01-21T18:27:01.019Z,-2.71
2023-01-21T18:29:30.263Z,-2.71
2023-01-21T18:31:58.088Z,-2.69
2023-01-21T18:34:24.714Z,-2.69
2023-01-21T18:36:51.310Z,-2.67
2023-01-21T18:39:19.825Z,-2.64
2023-01-21T18:41:46.609Z,-2.71
2023-01-21T18:44:13.942Z,-2.74
2023-01-21T18:46:43.481Z,-2.77
2023-01-21T18:49:14.982Z,-2.81
2023-01-21T18:51:41.456Z,-2.75
2023-01-21T18:54:08.001Z,-2.79
2023-01-21T18:56:36.175Z,-2.80
2023-01-21T18:59:03.273Z,-2.74
2023-01-21T19:01:29.813Z,-2.79
2023-01-21T19:03:56.355Z,-2.82
2023-01-21T19:06:23.845Z,-2.81
2023-01-21T19:08:50.513Z,-2.82
2023-01-21T19:11:17.980Z,-2.81
2023-01-21T19:13:44.462Z,-2.85
2023-01-21T19:16:16.433Z,-2.86
2023-01-21T19:18:42.971Z,-2.81
2023-01-21T19:21:09.550Z,-2.83
2023-01-21T19:23:37.097Z,-2.79
2023-01-21T19:26:04.648Z,-2.76
2023-01-21T19:28:31.512Z,-2.78
2023-01-21T19:30:58.436Z,-2.84
2023-01-21T19:33:25.703Z,-2.81
2023-01-21T19:36:02.543Z,-2.83
2023-01-21T19:38:29.342Z,-2.85
2023-01-21T19:40:56.334Z,-2.85
2023-01-21T19:43:23.312Z,-2.82
2023-01-21T19:45:51.735Z,-2.78
2023-01-21T19:48:20.078Z,-2.83
2023-01-21T19:50:47.029Z,-2.79
2023-01-21T19:53:15.998Z,-2.84
2023-01-21T19:55:43.774Z,-2.81
2023-01-21T19:58:22.274Z,-2.76
2023-01-21T20:00:50.956Z,-2.75
2023-01-21T20:03:19.492Z,-2.77
2023-01-21T20:05:48.251Z,-2.85
2023-01-21T20:08:26.537Z,-2.85
2023-01-21T20:10:53.093Z,-2.83
2023-01-21T20:13:19.760Z,-2.85
2023-01-21T20:15:48.498Z,-2.78
2023-01-21T20:18:22.356Z,-2.83
2023-01-21T20:20:49.686Z,-2.79
2023-01-21T20:23:17.489Z,-2.73
2023-01-21T20:25:46.538Z,-2.75
2023-01-21T20:28:18.495Z,-2.82
2023-01-21T20:30:46.433Z,-2.77
2023-01-21T20:33:16.954Z,-2.76
2023-01-21T20:35:46.873Z,-2.77
2023-01-21T20:38:16.816Z,-2.73
2023-01-21T20:40:43.284Z,-2.68
2023-01-21T20:43:10.279Z,-2.68
2023-01-21T20:45:45.548Z,-2.68
2023-01-21T20:48:27.545Z,-2.73
2023-01-21T20:50:54.938Z,-2.68
2023-01-21T20:53:21.853Z,-2.66
2023-01-21T20:55:50.043Z,-2.62
2023-01-21T20:58:18.195Z,-2.62
2023-01-21T21:00:45.999Z,-2.63
2023-01-21T21:03:15.107Z,-2.58
2023-01-21T21:05:41.662Z,-2.58
2023-01-21T21:08:14.930Z,-2.62
2023-01-21T21:10:41.871Z,-2.58
2023-01-21T21:13:08.999Z,-2.57
2023-01-21T21:15:36.907Z,-2.55
2023-01-21T21:18:04.460Z,-2.57
2023-01-21T21:20:33.721Z,-2.52
2023-01-21T21:23:00.654Z,-2.55
2023-01-21T21:25:30.363Z,-2.50
2023-01-21T21:27:58.449Z,-2.54
2023-01-21T21:30:28.129Z,-2.53
2023-01-21T21:32:59.983Z,-2.50
2023-01-21T21:35:28.154Z,-2.57
2023-01-21T21:37:59.574Z,-2.50
2023-01-21T21:40:29.376Z,-2.53
2023-01-21T21:43:15.914Z,-2.51
2023-01-21T21:46:02.603Z,-2.56
2023-01-21T21:48:39.084Z,-2.55
2023-01-21T21:51:14.683Z,-2.53
2023-01-21T21:53:41.816Z,-2.61
2023-01-21T21:56:20.026Z,-2.59
2023-01-21T21:58:46.695Z,-2.59
2023-01-21T22:01:14.711Z,-2.57
2023-01-21T22:03:41.854Z,-2.59
2023-01-21T22:06:09.676Z,-2.59
2023-01-21T22:08:38.256Z,-2.59
2023-01-21T22:11:24.673Z,-2.52
2023-01-21T22:13:52.447Z,-2.60
2023-01-21T22:16:23.971Z,-2.61
2023-01-21T22:18:52.075Z,-2.65
2023-01-21T22:21:21.504Z,-2.62
2023-01-21T22:23:48.512Z,-2.64
2023-01-21T22:26:18.413Z,-2.58
2023-01-21T22:28:45.294Z,-2.59
2023-01-21T22:31:18.382Z,-2.58
2023-01-21T22:33:45.380Z,-2.53
2023-01-21T22:36:15.212Z,-2.60
2023-01-21T22:38:42.340Z,-2.59
2023-01-21T22:41:11.723Z,-2.61
2023-01-21T22:43:41.918Z,-2.53
2023-01-21T22:46:12.030Z,-2.55
2023-01-21T22:48:38.676Z,-2.54
2023-01-21T22:51:05.321Z,-2.50
2023-01-21T22:53:33.816Z,-2.50
2023-01-21T22:56:04.643Z,-2.60
2023-01-21T22:58:33.285Z,-2.63
2023-01-21T23:01:01.030Z,-2.61
2023-01-21T23:03:28.736Z,-2.61
2023-01-21T23:06:02.258Z,-2.56
2023-01-21T23:08:28.781Z,-2.58
2023-01-21T23:11:01.419Z,-2.66
2023-01-21T23:13:28.077Z,-2.61
2023-01-21T23:15:54.953Z,-2.56
2023-01-21T23:18:21.769Z,-2.55
2023-01-21T23:20:48.718Z,-2.53
2023-01-21T23:23:15.410Z,-2.59
2023-01-21T23:25:43.471Z,-2.61
2023-01-21T23:28:11.620Z,-2.53
2023-01-21T23:30:38.575Z,-2.58
2023-01-21T23:33:05.180Z,-2.54
2023-01-21T23:35:34.065Z,-2.63
2023-01-21T23:38:02.193Z,-2.60
2023-01-21T23:40:28.669Z,-2.53
2023-01-21T23:42:55.150Z,-2.52
2023-01-21T23:45:21.644Z,-2.57
2023-01-21T23:47:48.339Z,-2.56
2023-01-21T23:50:15.161Z,-2.62
2023-01-21T23:52:41.834Z,-2.67
2023-01-21T23:55:09.917Z,-2.59
2023-01-21T23:57:38.097Z,-2.60
